Terminal Aerodrome Forecast
Issued by NWS

Current Version | Previous Version | Graphics & Text | Print | Product List | Glossary On
Versions: 1 2 3 4 5 6 7 8 9 10 11 12 13
000
FTUS41 KRNK 162339
TAFLWB
TAF
KLWB 162339Z 1700/1724 00000KT P6SM SCT150
     FM170900 00000KT 1/2SM FG BKN003
     FM171400 24005KT P6SM VCTS BKN035CB=

USA.gov is the U.S. government's official web portal to all federal, state and local government web resources and services.